Welcome to our new website - Welkom op onze vernieuwde website - Bienvenue sur notre nouveau site web - Willkommen auf unserer neuen Website
Check our progress frequently. Prüfen Sie unsere Fortschritte regelmäßig. Consultez notre progression fréquemment. Komt u straks nog eens

KNMI Weersverwachting is alleen beschikbaar in de Nederlandse Taal, Ongeacht welke taal u kiest.
KNMI weather forecast is only available in the Dutch language, No matter what language you choose.







Meteo Oudkarspel - De weer weet site voor Langedijk

Blijf op de hoogte van het actuele weer, Keep up to date with the current weather.



Lokaal brandgevaar
CBI


Regionaal natuur brand risico: Meer informatie


Mijn Webcam 1 Meer informatie My webcam


Mijn Webcam 2 Meer informatie My webcam 2


Onweer radar Meer informatie blitzortung!


Regen radar Meer informatie rain snow radar


Bezoek onze andere website:

Template - Davis WeatherLink Version
Vantage Veu

Template - Meteotemplate

Template - HomeWeatherStation

PDøROK Multimedia

Meteo Broek Op Langedijk

Visual FM - Serious Internet RadioVisual FM - Serious Internet Radio

Lief LangedijkLief Langedijk

Dé fietsenmaker van Langedijk en omstrekenAxel Noort dé fietsenmaker

Ijsvereniging Volharding

Meteo Tuitjenhorn

Meteo Delfzijl

Weerstation Noordbergum

Weerstation ParkstadWeerstation Parkstad



Het weer levert geen direct gevaar op.    Er zijn geen waarschuwingen afgegeven.

METAR rapporten vliegvelden

   
EHKD - De Kooy (navy), Netherlands
Afstand tot: N 23 km
Gewijzigd: 25-Sep-2020 01:33
Bewolking  
Bewolking  
   Wind: ZZO 16.7 km/h
Wind: ZZO 16.7 km/h
Temperatuur: 13°C
Dauwpunt: 11°C
Vochtigheid: 88%
Barometer: 992 hPa
Bewolking: Bewolking
Zicht: meer dan 10 km
Bewolking: Licht bewolkt 1600 ft,
Bewolking 11000 ft
EHKD 242333Z AUTO 15009KT 110V180 9999 FEW016 OVC110 13/11 Q0992 BLU
EHAM - Amsterdam/Schiph, Netherlands
Afstand tot: Z 44 km
Gewijzigd: 25-Sep-2020 01:25
Licht bewolkt  
Licht bewolkt  
   Wind: Zuiden 24.1 km/h
Wind: Zuiden 24.1 km/h
Temperatuur: 13°C
Dauwpunt: 10°C
Vochtigheid: 82%
Barometer: 993 hPa
Bewolking: Licht bewolkt
Zicht: meer dan 10 km
Bewolking: Licht bewolkt 1900 ft
EHAM 242325Z 18013KT 150V210 9999 FEW019 13/10 Q0993 NOSIG
EHQE - Hoorn-A Sea, Netherlands
Afstand tot: WNW 50 km
Gewijzigd: 25-Sep-2020 01:55
Wat regen mogelijk, Gedeeltelijk bewolkt  
Wat regen mogelijk, Gedeeltelijk bewolkt  
   Wind: Zuiden 31.5 km/h<br />Gust to 31.5 km/h
Wind: Zuiden 31.5 km/h
Gust to 31.5 km/h
Temperatuur: 13°C
Dauwpunt: 11°C
Vochtigheid: 88%
Barometer: 991 hPa
Bewolking: Gedeeltelijk bewolkt
Zicht: 8 km
Bewolking: Licht bewolkt 1500 ft,
Gedeeltelijk bewolkt 2400 ft
EHQE 242355Z AUTO 17017G28KT 8000 -RA FEW015CB SCT024 13/11 Q0991 RERA REDZ
EHVL - Vlieland Island, Netherlands
Afstand tot: N 58 km
Gewijzigd: 25-Sep-2020 01:55
Grotendeels bewolkt  
Grotendeels bewolkt  
   Wind: ZZO 33.3 km/h
Wind: ZZO 33.3 km/h
Temperatuur: 14°C
Dauwpunt: 11°C
Vochtigheid: 82%
Barometer: 992 hPa
Bewolking: Grotendeels bewolkt
Zicht: meer dan 10 km
Bewolking: Licht bewolkt 1700 ft,
Grotendeels bewolkt 2400 ft,
Grotendeels bewolkt 3700 ft
EHVL 242355Z AUTO 16018KT 9999 FEW017 BKN024 BKN037 14/11 Q0992 WHT
EHLW - Leeuwarden Rnlaf, Netherlands
Afstand tot: NO 85 km
Gewijzigd: 25-Sep-2020 01:55
Motregen, Bewolking  
Motregen, Bewolking  
   Wind: ZO 18.5 km/h
Wind: ZO 18.5 km/h
Temperatuur: 13°C
Dauwpunt: 10°C
Vochtigheid: 82%
Barometer: 994 hPa
Bewolking: Bewolking
Zicht: meer dan 10 km
Bewolking: Licht bewolkt 5200 ft,
Grotendeels bewolkt 6800 ft,
Bewolking 7400 ft
EHLW 242355Z AUTO 14010KT 090V170 9999 DZ FEW052 BKN068 OVC074 13/10 Q0994 BLU
EHRD - Rotterdam Airpor, Netherlands
Afstand tot: ZZW 88 km
Gewijzigd: 25-Sep-2020 01:25
Grotendeels bewolkt  
Grotendeels bewolkt  
   Wind: Zuiden 18.5 km/h
Wind: Zuiden 18.5 km/h
Temperatuur: 13°C
Dauwpunt: 10°C
Vochtigheid: 82%
Barometer: 993 hPa
Bewolking: Grotendeels bewolkt
Zicht: meer dan 10 km
Bewolking: Licht bewolkt 1600 ft,
Gedeeltelijk bewolkt 1900 ft,
Grotendeels bewolkt 2400 ft
EHRD 242325Z AUTO 19010KT 160V230 9999 FEW016 SCT019 BKN024 13/10 Q0993 NOSIG
EHKV - K14-Fa-1c Sea, Netherlands
Afstand tot: NW 100 km
Gewijzigd: 25-Sep-2020 01:55
Lichte (mot)regen, Grotendeels bewolkt  
Lichte (mot)regen, Grotendeels bewolkt  
   Wind: Oosten 31.5 km/h
Wind: Oosten 31.5 km/h
Temperatuur: 13°C
Dauwpunt: 12°C
Vochtigheid: 94%
Barometer: 990 hPa
Bewolking: Grotendeels bewolkt
Zicht: meer dan 10 km
Bewolking: Licht bewolkt 600 ft,
Licht bewolkt 1500 ft,
Gedeeltelijk bewolkt 3000 ft,
Grotendeels bewolkt 4700 ft
EHKV 242355Z AUTO 10017KT 9999 -DZ FEW006 FEW015CB SCT030 BKN047 13/12 Q0990
EHMG - L9-Ff-1 Sea, Netherlands
Afstand tot: N 101 km
Gewijzigd: 25-Sep-2020 01:55
Gedeeltelijk bewolkt  
Gedeeltelijk bewolkt  
   Wind: ZZO 33.3 km/h
Wind: ZZO 33.3 km/h
Temperatuur: 14°C
Dauwpunt: 11°C
Vochtigheid: 82%
Barometer: 993 hPa
Bewolking: Gedeeltelijk bewolkt
Zicht: meer dan 10 km
Bewolking: Licht bewolkt 1800 ft,
Gedeeltelijk bewolkt 3100 ft
EHMG 242355Z AUTO 15018KT 9999 FEW018 SCT031 14/11 Q0993
EHDL - Deelen Rnlafb, Netherlands
Afstand tot: ZO 102 km
Gewijzigd: 25-Sep-2020 01:55
Wat regen mogelijk, Bewolking  
Wat regen mogelijk, Bewolking  
   Wind: Zuiden 20.4 km/h
Wind: Zuiden 20.4 km/h
Temperatuur: 13°C
Dauwpunt: 12°C
Vochtigheid: 94%
Barometer: 994 hPa
Bewolking: Bewolking
Zicht: meer dan 10 km
Bewolking: Licht bewolkt 1500 ft,
Gedeeltelijk bewolkt 5500 ft,
Grotendeels bewolkt 6100 ft,
Bewolking 6800 ft
EHDL 242355Z AUTO 18011KT 120V240 9999 -RA FEW015CB SCT055 BKN061 OVC068 13/12 Q0994 RERA REDZ BLU
EHPG - P11-B Sea, Netherlands
Afstand tot: WZW 106 km
Gewijzigd: 25-Sep-2020 01:55
Grotendeels bewolkt  
Grotendeels bewolkt  
   Wind: ZW 33.3 km/h
Wind: ZW 33.3 km/h
Temperatuur: 12°C
Dauwpunt: 8°C
Vochtigheid: 77%
Barometer: 991 hPa
Bewolking: Grotendeels bewolkt
Zicht: meer dan 10 km
Bewolking: Licht bewolkt 700 ft,
Licht bewolkt 1800 ft,
Gedeeltelijk bewolkt 2400 ft,
Grotendeels bewolkt 4200 ft
EHPG 242355Z AUTO 22018KT 9999 FEW007 FEW018CB SCT024 BKN042 12/08 Q0991 REDZ
EHMA - Awg-1 Sea, Netherlands
Afstand tot: NO 116 km
Gewijzigd: 25-Sep-2020 01:55
Licht bewolkt  
Licht bewolkt  
   Wind: OZO 38.9 km/h
Wind: OZO 38.9 km/h
Temperatuur: 14°C
Dauwpunt: 10°C
Vochtigheid: 77%
Barometer: 994 hPa
Bewolking: Licht bewolkt
Zicht: meer dan 10 km
Bewolking: Licht bewolkt 1500 ft
EHMA 242355Z AUTO 12021KT 9999 FEW015CB 14/10 Q0994
EHSC - Goeree Le Sea, Netherlands
Afstand tot: ZW 116 km
Gewijzigd: 25-Sep-2020 01:55
  
  
   Wind: WZW 48.2 km/h
Wind: WZW 48.2 km/h
Temperatuur: 13°C
Dauwpunt: 9°C
Vochtigheid: 77%
Barometer: 993 hPa
Zicht: meer dan 10 km
EHSC 242355Z AUTO 24026KT 9999 ///////// 13/09 Q0993 W18/H15
EHJR - K13-A Sea, Netherlands
Afstand tot: WNW 120 km
Gewijzigd: 25-Sep-2020 01:55
  
  
   Wind: Kalm
Wind: Kalm
Temperatuur: 13°C
Dauwpunt: 11°C
Vochtigheid: 88%
Barometer: 990 hPa
EHJR 242355Z AUTO 00000KT //// // ///////// 13/11 Q0990 RE// W17/H15
EHGG - Groningen/Eelde, Netherlands
Afstand tot: ONO 126 km
Gewijzigd: 25-Sep-2020 01:55
Regenbuien, Regen, Licht bewolkt  
Regenbuien, Regen, Licht bewolkt  
   Wind: OZO 13 km/h
Wind: OZO 13 km/h
Temperatuur: 12°C
Dauwpunt: 10°C
Vochtigheid: 88%
Barometer: 994 hPa
Bewolking: Licht bewolkt
Zicht: meer dan 10 km
Bewolking: Licht bewolkt 1500 ft
EHGG 242355Z AUTO 11007KT 070V150 9999 SHRA FEW015CB 12/10 Q0994 RERA REDZ
EHGR - Gilze-Rijen Rnla, Netherlands
Afstand tot: Z 128 km
Gewijzigd: 25-Sep-2020 01:55
Bewolking  
Bewolking  
   Wind: ZZW 16.7 km/h
Wind: ZZW 16.7 km/h
Temperatuur: 12°C
Dauwpunt: 10°C
Vochtigheid: 88%
Barometer: 995 hPa
Bewolking: Bewolking
Zicht: meer dan 10 km
Bewolking: Licht bewolkt 9400 ft,
Bewolking 11000 ft
EHGR 242355Z AUTO 21009KT 140V260 9999 FEW094 OVC110 12/10 Q0995 BLU
EHSA - Euro Platform, Netherlands
Afstand tot: ZW 130 km
Gewijzigd: 25-Sep-2020 01:55
  
  
   Wind: ZW 53.7 km/h
Wind: ZW 53.7 km/h
Temperatuur: 12°C
Dauwpunt: 7°C
Vochtigheid: 72%
Barometer: 993 hPa
Zicht: meer dan 10 km
EHSA 242355Z AUTO 22029KT 9999 ///////// 12/07 Q0993 W16/H12
EHVK - Volkel Rnlafb, Netherlands
Afstand tot: ZZO 135 km
Gewijzigd: 25-Sep-2020 01:55
Wat regen mogelijk, Bewolking  
Wat regen mogelijk, Bewolking  
   Wind: Zuiden 20.4 km/h
Wind: Zuiden 20.4 km/h
Temperatuur: 13°C
Dauwpunt: 11°C
Vochtigheid: 88%
Barometer: 995 hPa
Bewolking: Bewolking
Zicht: meer dan 10 km
Bewolking: Licht bewolkt 1500 ft,
Grotendeels bewolkt 5900 ft,
Bewolking 6600 ft
EHVK 242355Z AUTO 19011KT 130V230 9999 -RA FEW015CB BKN059 OVC066 13/11 Q0995 BLU
EHWO - Woensdrecht Rnla, Netherlands
Afstand tot: ZZW 144 km
Gewijzigd: 25-Sep-2020 01:56
Bewolking  
Bewolking  
   Wind: ZW 16.7 km/h
Wind: ZW 16.7 km/h
Temperatuur: 12°C
Dauwpunt: 9°C
Vochtigheid: 82%
Barometer: 995 hPa
Bewolking: Bewolking
Zicht: meer dan 10 km
Bewolking: Gedeeltelijk bewolkt 1900 ft,
Grotendeels bewolkt 2500 ft,
Bewolking 3000 ft
EHWO 242356Z AUTO 22009KT 190V260 9999 SCT019 BKN025 OVC030 12/09 Q0995 WHT
EHEH - Eindhoven Rnlafb, Netherlands
Afstand tot: ZZO 146 km
Gewijzigd: 25-Sep-2020 01:48
Grotendeels bewolkt  
Grotendeels bewolkt  
   Wind: Zuiden 16.7 km/h
Wind: Zuiden 16.7 km/h
Temperatuur: 13°C
Dauwpunt: 12°C
Vochtigheid: 94%
Barometer: 995 hPa
Bewolking: Grotendeels bewolkt
Bewolking: Licht bewolkt 1500 ft,
Gedeeltelijk bewolkt 2100 ft,
Grotendeels bewolkt 2500 ft
EHEH 242348Z AUTO 18009KT //// // FEW015CB SCT021 BKN025 13/12 Q0995
EDLV - Niederrhein, Germany
Afstand tot: ZO 154 km
Gewijzigd: 24-Sep-2020 23:50
Verouderd
Helder  
Helder  
   Wind: ZO 11.1 km/h
Wind: ZO 11.1 km/h
Temperatuur: 13°C
Dauwpunt: 11°C
Vochtigheid: 88%
Barometer: 996 hPa
Zicht: meer dan 10 km
Bewolking: Helder
EDLV 242150Z 14006KT CAVOK 13/11 Q0996
 

Script ontwikkeld door  Saratoga-weather.org Aangepast voor de template door  Weerstation Leuven

U vindt ons ook hier:

Vereniging voor Weerkunde en Klimatologie

Het Weer Aktueel

WOW Nederland KNMI

UK Metoffice

European Weather Network

WeatherCloud

Weather Underground

Benelux Weer Netwerk

AWEKAS

WeatherlinkIP

Citizen Weather Observer Program (CWOP)

HAMweather, WeatherForYou, PWS Weather

        

Apparatuur in gebruik:

Weerstation
Davis - Vantage Veu

Weerprogramma
Meteobridge

Weercomputer
Carambola2 - MeteroBridge Pro (black)

Webleverancier
1Eurohosting

Hardwareleverancier 1
Uurwerk- & Meteospecialist Vlasma

Hardwareleverancier 2
Weerhuisje

Davis - Vantage Veu

Meteobridge

Carambola2 - MeteroBridge Pro (black)

1Eurohosting

Uurwerk- & Meteospecialist Vlasma

Weerhuisje


Alles over het weer rondom het weerstation van Meteo Oudkarspel, vind je hier. Dus alles onder 1 dak.

Everything about the weather around the Meteo Oudkarspel weather station can be found here. So everything under one roof..

Dus kom regelmatig terug, So come back regularly.


# #---------------------- version history # 3.20 2015-10-12 release 2.8b version